createdAt,value
2019-03-24T00:00:22.361Z,1016.36
2019-03-24T00:01:22.292Z,1016.41
2019-03-24T00:02:32.248Z,1016.40
2019-03-24T00:03:22.166Z,1016.36
2019-03-24T00:04:22.102Z,1016.38
2019-03-24T00:05:22.036Z,1016.42
2019-03-24T00:06:21.970Z,1016.41
2019-03-24T00:07:21.933Z,1016.40
2019-03-24T00:08:21.844Z,1016.41
2019-03-24T00:09:21.782Z,1016.36
2019-03-24T00:10:21.713Z,1016.38
2019-03-24T00:11:21.651Z,1016.35
2019-03-24T00:12:21.597Z,1016.35
2019-03-24T00:13:21.525Z,1016.36
2019-03-24T00:14:21.463Z,1016.34
2019-03-24T00:15:26.120Z,1016.36
2019-03-24T00:16:22.347Z,1016.37
2019-03-24T00:17:21.294Z,1016.30
2019-03-24T00:18:31.232Z,1016.29
2019-03-24T00:19:21.145Z,1016.26
2019-03-24T00:20:21.077Z,1016.29
2019-03-24T00:21:21.008Z,1016.29
2019-03-24T00:22:20.970Z,1016.33
2019-03-24T00:23:20.874Z,1016.29
2019-03-24T00:24:20.805Z,1016.34
2019-03-24T00:25:20.746Z,1016.31
2019-03-24T00:26:20.683Z,1016.30
2019-03-24T00:27:20.615Z,1016.36
2019-03-24T00:28:20.556Z,1016.33
2019-03-24T00:29:20.486Z,1016.30
2019-03-24T00:30:20.421Z,1016.27
2019-03-24T00:31:20.361Z,1016.37
2019-03-24T00:32:20.301Z,1016.34
2019-03-24T00:33:20.247Z,1016.29
2019-03-24T00:34:30.192Z,1016.32
2019-03-24T00:35:20.130Z,1016.27
2019-03-24T00:36:20.067Z,1016.29
2019-03-24T00:37:19.995Z,1016.32
2019-03-24T00:38:19.939Z,1016.28
2019-03-24T00:39:19.889Z,1016.25
2019-03-24T00:40:19.820Z,1016.22
2019-03-24T00:41:19.744Z,1016.25
2019-03-24T00:42:19.677Z,1016.24
2019-03-24T00:43:19.621Z,1016.21
2019-03-24T00:44:19.544Z,1016.26
2019-03-24T00:45:19.479Z,1016.25
2019-03-24T00:46:19.421Z,1016.27
2019-03-24T00:47:19.377Z,1016.24
2019-03-24T00:48:19.302Z,1016.16
2019-03-24T00:49:19.251Z,1016.15
2019-03-24T00:50:29.182Z,1016.16
2019-03-24T00:51:19.117Z,1016.16
2019-03-24T00:52:19.046Z,1016.13
2019-03-24T00:53:18.975Z,1016.18
2019-03-24T00:54:18.906Z,1016.11
2019-03-24T00:55:18.857Z,1016.03
2019-03-24T00:56:18.785Z,1016.09
2019-03-24T00:57:18.730Z,1016.13
2019-03-24T00:58:18.670Z,1016.04
2019-03-24T00:59:18.607Z,1016.05
2019-03-24T01:00:18.549Z,1016.08
2019-03-24T01:01:18.485Z,1016.07
2019-03-24T01:02:18.412Z,1016.09
2019-03-24T01:03:18.792Z,1016.05
2019-03-24T01:04:18.292Z,1016.09
2019-03-24T01:05:18.206Z,1016.03
2019-03-24T01:06:28.172Z,1016.01
2019-03-24T01:07:18.076Z,1016.01
2019-03-24T01:08:18.032Z,1016.08
2019-03-24T01:09:17.942Z,1016.00
2019-03-24T01:10:17.882Z,1015.93
2019-03-24T01:11:17.813Z,1015.95
2019-03-24T01:12:17.745Z,1015.98
2019-03-24T01:13:17.699Z,1015.94
2019-03-24T01:14:17.604Z,1015.91
2019-03-24T01:15:17.550Z,1015.89
2019-03-24T01:16:17.479Z,1015.83
2019-03-24T01:17:17.410Z,1015.79
2019-03-24T01:18:17.356Z,1015.80
2019-03-24T01:19:17.268Z,1015.77
2019-03-24T01:20:17.202Z,1015.83
2019-03-24T01:21:17.140Z,1015.78
2019-03-24T01:22:27.094Z,1015.78
2019-03-24T01:23:17.017Z,1015.79
2019-03-24T01:24:16.954Z,1015.81
2019-03-24T01:25:16.889Z,1015.76
2019-03-24T01:26:16.829Z,1015.78
2019-03-24T01:27:16.767Z,1015.74
2019-03-24T01:28:16.704Z,1015.77
2019-03-24T01:29:16.670Z,1015.74
2019-03-24T01:30:16.582Z,1015.78
2019-03-24T01:31:16.509Z,1015.76
2019-03-24T01:32:16.448Z,1015.74
2019-03-24T01:33:16.385Z,1015.79
2019-03-24T01:34:16.325Z,1015.72
2019-03-24T01:35:16.254Z,1015.79
2019-03-24T01:36:16.209Z,1015.82
2019-03-24T01:37:16.126Z,1015.73
2019-03-24T01:38:26.073Z,1015.77
2019-03-24T01:39:15.995Z,1015.77
2019-03-24T01:40:15.941Z,1015.79
2019-03-24T01:41:15.862Z,1015.77
2019-03-24T01:42:15.801Z,1015.77
2019-03-24T01:43:15.746Z,1015.76
2019-03-24T01:44:15.683Z,1015.77
2019-03-24T01:45:15.638Z,1015.72
2019-03-24T01:46:15.569Z,1015.76
2019-03-24T01:47:15.509Z,1015.74
2019-03-24T01:48:15.451Z,1015.75
2019-03-24T01:49:15.381Z,1015.82
2019-03-24T01:50:15.308Z,1015.76
2019-03-24T01:51:15.241Z,1015.67
2019-03-24T01:52:15.160Z,1015.73
2019-03-24T01:53:15.103Z,1015.70
2019-03-24T01:54:25.058Z,1015.72
2019-03-24T01:55:14.964Z,1015.72
2019-03-24T01:56:14.905Z,1015.67
2019-03-24T01:57:14.842Z,1015.70
2019-03-24T01:58:14.780Z,1015.69
2019-03-24T01:59:14.783Z,1015.64
2019-03-24T02:00:14.645Z,1015.63
2019-03-24T02:01:14.580Z,1015.65
2019-03-24T02:02:14.517Z,1015.59
2019-03-24T02:03:14.454Z,1015.67
2019-03-24T02:04:14.388Z,1015.58
2019-03-24T02:05:14.325Z,1015.63
2019-03-24T02:06:14.258Z,1015.64
2019-03-24T02:07:14.195Z,1015.64
2019-03-24T02:08:14.131Z,1015.63
2019-03-24T02:09:14.063Z,1015.60
2019-03-24T02:10:24.015Z,1015.62
2019-03-24T02:11:13.937Z,1015.57
2019-03-24T02:12:13.882Z,1015.58
2019-03-24T02:13:13.809Z,1015.51
2019-03-24T02:14:13.733Z,1015.50
2019-03-24T02:15:13.688Z,1015.52
2019-03-24T02:16:13.615Z,1015.47
2019-03-24T02:17:13.540Z,1015.48
2019-03-24T02:18:13.479Z,1015.52
2019-03-24T02:19:13.406Z,1015.52
2019-03-24T02:20:13.352Z,1015.59
2019-03-24T02:21:13.268Z,1015.51
2019-03-24T02:22:13.204Z,1015.58
2019-03-24T02:23:13.134Z,1015.57
2019-03-24T02:24:13.068Z,1015.51
2019-03-24T02:25:12.999Z,1015.48
2019-03-24T02:26:22.943Z,1015.49
2019-03-24T02:27:12.917Z,1015.49
2019-03-24T02:28:12.803Z,1015.54
2019-03-24T02:29:12.737Z,1015.49
2019-03-24T02:30:12.691Z,1015.46
2019-03-24T02:31:12.620Z,1015.48
2019-03-24T02:32:12.549Z,1015.42
2019-03-24T02:33:12.483Z,1015.46
2019-03-24T02:34:12.405Z,1015.44
2019-03-24T02:35:12.344Z,1015.39
2019-03-24T02:36:12.268Z,1015.41
2019-03-24T02:37:12.207Z,1015.43
2019-03-24T02:38:12.138Z,1015.38
2019-03-24T02:39:12.072Z,1015.36
2019-03-24T02:40:12.026Z,1015.42
2019-03-24T02:41:11.950Z,1015.42
2019-03-24T02:42:21.891Z,1015.45
2019-03-24T02:43:11.798Z,1015.46
2019-03-24T02:44:11.739Z,1015.49
2019-03-24T02:45:11.707Z,1015.44
2019-03-24T02:46:23.703Z,1015.46
2019-03-24T02:47:12.528Z,1015.47
2019-03-24T02:48:11.467Z,1015.41
2019-03-24T02:49:11.403Z,1015.43
2019-03-24T02:50:11.342Z,1015.46
2019-03-24T02:51:11.291Z,1015.47
2019-03-24T02:52:11.203Z,1015.41
2019-03-24T02:53:11.141Z,1015.47
2019-03-24T02:54:11.075Z,1015.47
2019-03-24T02:55:11.020Z,1015.46
2019-03-24T02:56:10.952Z,1015.38
2019-03-24T02:57:10.887Z,1015.45
2019-03-24T02:58:20.843Z,1015.49
2019-03-24T02:59:10.763Z,1015.46
2019-03-24T03:00:10.703Z,1015.49
2019-03-24T03:01:10.639Z,1015.45
2019-03-24T03:02:10.591Z,1015.53
2019-03-24T03:03:10.530Z,1015.47
2019-03-24T03:04:10.436Z,1015.46
2019-03-24T03:05:10.368Z,1015.47
2019-03-24T03:06:10.298Z,1015.49
2019-03-24T03:07:10.239Z,1015.41
2019-03-24T03:08:10.175Z,1015.44
2019-03-24T03:09:10.107Z,1015.43
2019-03-24T03:10:10.040Z,1015.43
2019-03-24T03:11:10.018Z,1015.45
2019-03-24T03:12:09.917Z,1015.46
2019-03-24T03:13:09.839Z,1015.46
2019-03-24T03:14:19.799Z,1015.42
2019-03-24T03:15:09.744Z,1015.44
2019-03-24T03:16:09.640Z,1015.37
2019-03-24T03:17:09.566Z,1015.33
2019-03-24T03:18:09.499Z,1015.32
2019-03-24T03:19:09.434Z,1015.36
2019-03-24T03:20:09.366Z,1015.38
2019-03-24T03:21:09.311Z,1015.36
2019-03-24T03:22:09.235Z,1015.31
2019-03-24T03:23:09.165Z,1015.36
2019-03-24T03:24:09.104Z,1015.34
2019-03-24T03:25:09.040Z,1015.34
2019-03-24T03:26:09.013Z,1015.37
2019-03-24T03:27:08.950Z,1015.30
2019-03-24T03:28:08.853Z,1015.35
2019-03-24T03:29:08.782Z,1015.32
2019-03-24T03:30:18.731Z,1015.33
2019-03-24T03:31:08.657Z,1015.37
2019-03-24T03:32:08.597Z,1015.31
2019-03-24T03:33:08.512Z,1015.31
2019-03-24T03:34:08.443Z,1015.28
2019-03-24T03:35:08.393Z,1015.25
2019-03-24T03:36:08.312Z,1015.31
2019-03-24T03:37:08.247Z,1015.30
2019-03-24T03:38:08.177Z,1015.26
2019-03-24T03:39:08.108Z,1015.24
2019-03-24T03:40:08.090Z,1015.23
2019-03-24T03:41:08.028Z,1015.20
2019-03-24T03:42:07.926Z,1015.21
2019-03-24T03:43:07.857Z,1015.26
2019-03-24T03:44:07.801Z,1015.22
2019-03-24T03:45:07.724Z,1015.20
2019-03-24T03:46:17.683Z,1015.22
2019-03-24T03:47:07.593Z,1015.21
2019-03-24T03:48:07.520Z,1015.23
2019-03-24T03:49:07.461Z,1015.21
2019-03-24T03:50:07.381Z,1015.14
2019-03-24T03:51:07.321Z,1015.19
2019-03-24T03:52:07.263Z,1015.10
2019-03-24T03:53:07.200Z,1015.15
2019-03-24T03:54:07.098Z,1015.09
2019-03-24T03:55:07.030Z,1015.15
2019-03-24T03:56:06.962Z,1015.06
2019-03-24T03:57:07.180Z,1015.06
2019-03-24T03:58:06.821Z,1015.07
2019-03-24T03:59:06.760Z,1015.10
2019-03-24T04:00:06.716Z,1015.03
2019-03-24T04:01:06.629Z,1015.03
2019-03-24T04:02:16.647Z,1015.01
2019-03-24T04:03:06.502Z,1015.04
2019-03-24T04:04:06.435Z,1015.02
2019-03-24T04:05:06.394Z,1015.01
2019-03-24T04:06:06.303Z,1014.98
2019-03-24T04:07:06.239Z,1014.99
2019-03-24T04:08:06.178Z,1015.03
2019-03-24T04:09:06.116Z,1014.99
2019-03-24T04:10:06.052Z,1014.90
2019-03-24T04:11:05.990Z,1015.00
2019-03-24T04:12:05.924Z,1014.93
2019-03-24T04:13:05.873Z,1014.95
2019-03-24T04:14:05.788Z,1014.96
2019-03-24T04:15:05.744Z,1014.91
2019-03-24T04:16:05.669Z,1015.01
2019-03-24T04:17:07.817Z,1015.05
2019-03-24T04:18:15.568Z,1014.98
2019-03-24T04:19:05.505Z,1014.98
2019-03-24T04:20:05.429Z,1014.99
2019-03-24T04:21:05.372Z,1015.03
2019-03-24T04:22:05.358Z,1015.02
2019-03-24T04:23:05.274Z,1014.96
2019-03-24T04:24:05.178Z,1015.03
2019-03-24T04:25:05.155Z,1014.97
2019-03-24T04:26:05.053Z,1015.00
2019-03-24T04:27:04.996Z,1014.96
2019-03-24T04:28:04.982Z,1015.02
2019-03-24T04:29:04.876Z,1014.98
2019-03-24T04:30:04.815Z,1014.97
2019-03-24T04:31:04.756Z,1014.97
2019-03-24T04:32:04.690Z,1014.97
2019-03-24T04:33:04.638Z,1014.96
2019-03-24T04:34:14.568Z,1014.97
2019-03-24T04:35:04.487Z,1014.97
2019-03-24T04:36:04.417Z,1015.01
2019-03-24T04:37:04.349Z,1015.02
2019-03-24T04:38:04.292Z,1014.93
2019-03-24T04:39:04.234Z,1015.02
2019-03-24T04:40:04.161Z,1015.02
2019-03-24T04:41:04.099Z,1014.95
2019-03-24T04:42:04.036Z,1014.99
2019-03-24T04:43:03.975Z,1014.95
2019-03-24T04:44:03.920Z,1014.96
2019-03-24T04:45:03.850Z,1014.99
2019-03-24T04:46:03.770Z,1015.01
2019-03-24T04:47:03.700Z,1015.02
2019-03-24T04:48:03.639Z,1015.05
2019-03-24T04:49:03.589Z,1015.06
2019-03-24T04:50:13.528Z,1015.03
2019-03-24T04:51:03.516Z,1015.04
2019-03-24T04:52:03.401Z,1015.03
2019-03-24T04:53:03.341Z,1015.11
2019-03-24T04:54:03.290Z,1015.06
2019-03-24T04:55:03.210Z,1015.06
2019-03-24T04:56:03.156Z,1014.98
2019-03-24T04:57:03.099Z,1015.03
2019-03-24T04:58:03.024Z,1015.04
2019-03-24T04:59:02.999Z,1015.01
2019-03-24T05:00:02.916Z,1015.01
2019-03-24T05:01:02.836Z,1015.01
2019-03-24T05:02:02.781Z,1015.00
2019-03-24T05:03:02.717Z,1015.06
2019-03-24T05:04:02.667Z,1015.02
2019-03-24T05:05:02.619Z,1015.06
2019-03-24T05:06:12.561Z,1015.05
2019-03-24T05:07:02.482Z,1015.09
2019-03-24T05:08:02.428Z,1015.06
2019-03-24T05:09:02.360Z,1015.07
2019-03-24T05:10:02.304Z,1015.09
2019-03-24T05:11:02.246Z,1015.09
2019-03-24T05:12:02.197Z,1015.12
2019-03-24T05:13:02.126Z,1015.07
2019-03-24T05:14:02.069Z,1015.08
2019-03-24T05:15:02.017Z,1015.07
2019-03-24T05:16:01.955Z,1015.06
2019-03-24T05:17:01.902Z,1015.03
2019-03-24T05:18:01.836Z,1015.11
2019-03-24T05:19:01.779Z,1015.12
2019-03-24T05:20:01.733Z,1015.15
2019-03-24T05:21:01.662Z,1015.13
2019-03-24T05:22:11.622Z,1015.11
2019-03-24T05:23:01.544Z,1015.13
2019-03-24T05:24:01.486Z,1015.09
2019-03-24T05:25:01.429Z,1015.06
2019-03-24T05:26:01.371Z,1015.01
2019-03-24T05:27:01.312Z,1015.09
2019-03-24T05:28:01.263Z,1015.08
2019-03-24T05:29:01.206Z,1015.09
2019-03-24T05:30:01.163Z,1015.10
2019-03-24T05:31:01.097Z,1015.05
2019-03-24T05:32:01.042Z,1015.11
2019-03-24T05:33:00.979Z,1015.07
2019-03-24T05:34:00.911Z,1015.12
2019-03-24T05:35:00.865Z,1015.09
2019-03-24T05:36:00.791Z,1015.07
2019-03-24T05:37:00.734Z,1015.09
2019-03-24T05:38:10.679Z,1015.10
2019-03-24T05:39:00.606Z,1015.12
2019-03-24T05:40:00.574Z,1015.10
2019-03-24T05:41:00.485Z,1015.09
2019-03-24T05:42:00.436Z,1015.06
2019-03-24T05:43:00.382Z,1015.12
2019-03-24T05:44:00.333Z,1015.11
2019-03-24T05:45:00.327Z,1015.14
2019-03-24T05:46:00.214Z,1015.10
2019-03-24T05:47:00.154Z,1015.16
2019-03-24T05:48:00.088Z,1015.11
2019-03-24T05:49:00.025Z,1015.16
2019-03-24T05:49:59.968Z,1015.17
2019-03-24T05:50:59.906Z,1015.10
2019-03-24T05:51:59.850Z,1015.13
2019-03-24T05:52:59.839Z,1015.16
2019-03-24T05:54:09.747Z,1015.15
2019-03-24T05:54:59.677Z,1015.11
2019-03-24T05:55:59.620Z,1015.17
2019-03-24T05:56:59.565Z,1015.16
2019-03-24T05:57:59.493Z,1015.14
2019-03-24T05:58:59.430Z,1015.22
2019-03-24T05:59:59.416Z,1015.26
2019-03-24T06:00:59.311Z,1015.15
2019-03-24T06:01:59.253Z,1015.15
2019-03-24T06:02:59.195Z,1015.17
2019-03-24T06:03:59.124Z,1015.17
2019-03-24T06:04:59.084Z,1015.13
2019-03-24T06:05:59.015Z,1015.22
2019-03-24T06:06:58.957Z,1015.18
2019-03-24T06:07:58.886Z,1015.19
2019-03-24T06:08:58.838Z,1015.15
2019-03-24T06:10:08.765Z,1015.11
2019-03-24T06:10:58.716Z,1015.19
2019-03-24T06:11:58.656Z,1015.15
2019-03-24T06:12:58.579Z,1015.14
2019-03-24T06:13:58.517Z,1015.06
2019-03-24T06:14:58.473Z,1015.20
2019-03-24T06:15:58.393Z,1015.03
2019-03-24T06:16:58.331Z,1015.06
2019-03-24T06:17:58.292Z,1015.11
2019-03-24T06:18:58.218Z,1015.06
2019-03-24T06:19:58.163Z,1015.08
2019-03-24T06:20:58.103Z,1015.09
2019-03-24T06:21:58.043Z,1015.04
2019-03-24T06:22:57.976Z,1015.02
2019-03-24T06:23:57.913Z,1015.11
2019-03-24T06:24:57.863Z,1015.12
2019-03-24T06:26:07.820Z,1015.05
2019-03-24T06:26:57.732Z,1015.15
2019-03-24T06:27:57.667Z,1015.15
2019-03-24T06:28:57.607Z,1015.12
2019-03-24T06:29:57.545Z,1015.12
2019-03-24T06:30:57.490Z,1015.13
2019-03-24T06:31:57.430Z,1015.17
2019-03-24T06:32:57.373Z,1015.15
2019-03-24T06:33:57.313Z,1015.23
2019-03-24T06:34:57.248Z,1015.30
2019-03-24T06:35:57.190Z,1015.21
2019-03-24T06:36:57.130Z,1015.27
2019-03-24T06:37:57.073Z,1015.27
2019-03-24T06:38:57.006Z,1015.30
2019-03-24T06:39:56.950Z,1015.28
2019-03-24T06:40:56.885Z,1015.32
2019-03-24T06:42:06.855Z,1015.25
2019-03-24T06:42:56.778Z,1015.29
2019-03-24T06:43:56.715Z,1015.28
2019-03-24T06:44:56.665Z,1015.26
2019-03-24T06:45:56.585Z,1015.33
2019-03-24T06:46:56.531Z,1015.32
2019-03-24T06:47:58.100Z,1015.31
2019-03-24T06:48:56.399Z,1015.34
2019-03-24T06:49:56.332Z,1015.33
2019-03-24T06:50:56.272Z,1015.28
2019-03-24T06:51:56.225Z,1015.33
2019-03-24T06:52:56.141Z,1015.29
2019-03-24T06:53:56.088Z,1015.27
2019-03-24T06:54:56.027Z,1015.31
2019-03-24T06:55:55.980Z,1015.26
2019-03-24T06:56:55.918Z,1015.28
2019-03-24T06:58:05.862Z,1015.22
2019-03-24T06:58:55.790Z,1015.23
2019-03-24T06:59:55.748Z,1015.27
2019-03-24T07:00:55.667Z,1015.31
2019-03-24T07:01:55.643Z,1015.35
2019-03-24T07:02:55.548Z,1015.33
2019-03-24T07:03:55.490Z,1015.26
2019-03-24T07:04:55.422Z,1015.30
2019-03-24T07:05:55.359Z,1015.37
2019-03-24T07:06:55.301Z,1015.34
2019-03-24T07:07:55.242Z,1015.39
2019-03-24T07:08:55.188Z,1015.29
2019-03-24T07:09:55.104Z,1015.32
2019-03-24T07:10:55.061Z,1015.30
2019-03-24T07:11:54.972Z,1015.26
2019-03-24T07:12:54.907Z,1015.32
2019-03-24T07:14:04.848Z,1015.31
2019-03-24T07:14:54.771Z,1015.27
2019-03-24T07:15:54.710Z,1015.32
2019-03-24T07:16:54.646Z,1015.22
2019-03-24T07:17:54.579Z,1015.29
2019-03-24T07:18:54.510Z,1015.20
2019-03-24T07:19:54.442Z,1015.26
2019-03-24T07:20:54.376Z,1015.25
2019-03-24T07:21:54.301Z,1015.27
2019-03-24T07:22:54.236Z,1015.29
2019-03-24T07:23:54.158Z,1015.25
2019-03-24T07:24:54.088Z,1015.27
2019-03-24T07:25:54.029Z,1015.21
2019-03-24T07:26:53.954Z,1015.25
2019-03-24T07:27:53.887Z,1015.24
2019-03-24T07:28:53.812Z,1015.24
2019-03-24T07:30:03.748Z,1015.19
2019-03-24T07:30:53.660Z,1015.25
2019-03-24T07:31:53.591Z,1015.27
2019-03-24T07:32:53.537Z,1015.29
2019-03-24T07:33:53.443Z,1015.30
2019-03-24T07:34:53.360Z,1015.30
2019-03-24T07:35:53.271Z,1015.40
2019-03-24T07:36:53.187Z,1015.33
2019-03-24T07:37:53.107Z,1015.35
2019-03-24T07:38:53.017Z,1015.27
2019-03-24T07:39:52.931Z,1015.25
2019-03-24T07:40:52.827Z,1015.20
2019-03-24T07:41:52.739Z,1015.28
2019-03-24T07:42:52.634Z,1015.28
2019-03-24T07:43:52.523Z,1015.25
2019-03-24T07:44:52.422Z,1015.19
2019-03-24T07:46:02.336Z,1015.20
2019-03-24T07:46:52.235Z,1015.18
2019-03-24T07:47:52.144Z,1015.20
2019-03-24T07:48:52.026Z,1015.14
2019-03-24T07:49:51.924Z,1015.15
2019-03-24T07:50:51.828Z,1015.13
2019-03-24T07:51:51.733Z,1015.18
2019-03-24T07:52:51.642Z,1015.09
2019-03-24T07:53:51.561Z,1015.18
2019-03-24T07:54:51.470Z,1015.17
2019-03-24T07:55:51.384Z,1015.21
2019-03-24T07:56:51.296Z,1015.16
2019-03-24T07:57:51.213Z,1015.16
2019-03-24T07:58:51.143Z,1015.21
2019-03-24T07:59:51.071Z,1015.27
2019-03-24T08:00:50.975Z,1015.21
2019-03-24T08:02:00.911Z,1015.16
2019-03-24T08:02:51.427Z,1015.11
2019-03-24T08:03:50.783Z,1015.15
2019-03-24T08:04:50.684Z,1015.12
2019-03-24T08:05:50.595Z,1015.09
2019-03-24T08:06:50.518Z,1015.07
2019-03-24T08:07:50.438Z,1015.11
2019-03-24T08:08:50.370Z,1015.02
2019-03-24T08:09:50.296Z,1015.10
2019-03-24T08:10:50.212Z,1015.12
2019-03-24T08:11:50.143Z,1015.09
2019-03-24T08:12:50.126Z,1015.11
2019-03-24T08:13:53.919Z,1015.10
2019-03-24T08:14:49.916Z,1015.09
2019-03-24T08:15:49.815Z,1015.06
2019-03-24T08:16:49.733Z,1015.07
2019-03-24T08:17:59.695Z,1015.01
2019-03-24T08:18:49.591Z,1015.00
2019-03-24T08:19:49.501Z,1014.99
2019-03-24T08:20:49.425Z,1014.99
2019-03-24T08:21:49.352Z,1014.99
2019-03-24T08:22:49.268Z,1014.97
2019-03-24T08:23:49.193Z,1014.97
2019-03-24T08:24:49.123Z,1014.99
2019-03-24T08:25:49.050Z,1014.91
2019-03-24T08:26:48.979Z,1014.87
2019-03-24T08:27:48.906Z,1014.93
2019-03-24T08:28:48.847Z,1014.92
2019-03-24T08:29:48.770Z,1014.88
2019-03-24T08:30:48.684Z,1014.89
2019-03-24T08:31:48.616Z,1014.96
2019-03-24T08:32:48.542Z,1014.93
2019-03-24T08:33:58.494Z,1014.89
2019-03-24T08:34:48.582Z,1014.89
2019-03-24T08:35:48.312Z,1014.95
2019-03-24T08:36:48.235Z,1014.91
2019-03-24T08:37:48.191Z,1014.87
2019-03-24T08:38:48.092Z,1014.90
2019-03-24T08:39:48.020Z,1014.91
2019-03-24T08:40:47.956Z,1014.91
2019-03-24T08:41:47.869Z,1014.85
2019-03-24T08:42:47.793Z,1014.85
2019-03-24T08:43:47.713Z,1014.86
2019-03-24T08:44:47.670Z,1014.83
2019-03-24T08:45:47.561Z,1014.81
2019-03-24T08:46:47.484Z,1014.75
2019-03-24T08:47:47.405Z,1014.76
2019-03-24T08:48:47.327Z,1014.73
2019-03-24T08:49:57.266Z,1014.76
2019-03-24T08:50:47.184Z,1014.72
2019-03-24T08:51:47.101Z,1014.73
2019-03-24T08:52:47.028Z,1014.72
2019-03-24T08:53:46.941Z,1014.74
2019-03-24T08:54:46.891Z,1014.77
2019-03-24T08:55:46.790Z,1014.70
2019-03-24T08:56:46.718Z,1014.67
2019-03-24T08:57:46.647Z,1014.72
2019-03-24T08:58:46.575Z,1014.61
2019-03-24T08:59:46.529Z,1014.60
2019-03-24T09:00:46.437Z,1014.58
2019-03-24T09:01:46.366Z,1014.64
2019-03-24T09:02:46.294Z,1014.64
2019-03-24T09:03:46.221Z,1014.61
2019-03-24T09:04:46.169Z,1014.67
2019-03-24T09:05:56.086Z,1014.61
2019-03-24T09:06:46.002Z,1014.61
2019-03-24T09:07:45.928Z,1014.65
2019-03-24T09:08:45.859Z,1014.56
2019-03-24T09:09:45.789Z,1014.59
2019-03-24T09:10:45.710Z,1014.59
2019-03-24T09:11:45.634Z,1014.61
2019-03-24T09:12:45.558Z,1014.58
2019-03-24T09:13:45.482Z,1014.62
2019-03-24T09:14:45.427Z,1014.57
2019-03-24T09:15:45.345Z,1014.61
2019-03-24T09:16:45.268Z,1014.60
2019-03-24T09:17:45.271Z,1014.56
2019-03-24T09:18:52.594Z,1014.58
2019-03-24T09:19:46.042Z,1014.52
2019-03-24T09:20:44.992Z,1014.53
2019-03-24T09:21:54.902Z,1014.49
2019-03-24T09:22:44.810Z,1014.54
2019-03-24T09:23:44.734Z,1014.52
2019-03-24T09:24:44.673Z,1014.53
2019-03-24T09:25:44.597Z,1014.57
2019-03-24T09:26:44.518Z,1014.46
2019-03-24T09:27:44.437Z,1014.51
2019-03-24T09:28:44.363Z,1014.42
2019-03-24T09:29:44.290Z,1014.40
2019-03-24T09:30:44.229Z,1014.37
2019-03-24T09:31:44.138Z,1014.38
2019-03-24T09:32:44.057Z,1014.34
2019-03-24T09:33:43.981Z,1014.34
2019-03-24T09:34:43.909Z,1014.32
2019-03-24T09:35:43.862Z,1014.29
2019-03-24T09:36:43.776Z,1014.30
2019-03-24T09:37:53.688Z,1014.33
2019-03-24T09:38:43.594Z,1014.32
2019-03-24T09:39:43.517Z,1014.30
2019-03-24T09:40:43.449Z,1014.24
2019-03-24T09:41:43.360Z,1014.26
2019-03-24T09:42:43.282Z,1014.17
2019-03-24T09:43:43.200Z,1014.27
2019-03-24T09:44:43.119Z,1014.22
2019-03-24T09:45:43.053Z,1014.22
2019-03-24T09:46:42.966Z,1014.18
2019-03-24T09:47:42.887Z,1014.23
2019-03-24T09:48:42.808Z,1014.18
2019-03-24T09:49:42.747Z,1014.18
2019-03-24T09:50:42.680Z,1014.17
2019-03-24T09:51:42.558Z,1014.08
2019-03-24T09:52:42.485Z,1014.15
2019-03-24T09:53:52.430Z,1014.17
2019-03-24T09:54:42.336Z,1014.15
2019-03-24T09:55:42.283Z,1014.14
2019-03-24T09:56:42.182Z,1014.15
2019-03-24T09:57:42.107Z,1014.16
2019-03-24T09:58:42.032Z,1014.19
2019-03-24T09:59:41.953Z,1014.18
2019-03-24T10:00:41.877Z,1014.19
2019-03-24T10:01:41.807Z,1014.17
2019-03-24T10:02:41.715Z,1014.19
2019-03-24T10:03:41.637Z,1014.16
2019-03-24T10:04:41.558Z,1014.18
2019-03-24T10:05:41.484Z,1014.20
2019-03-24T10:06:41.413Z,1014.14
2019-03-24T10:07:41.320Z,1014.14
2019-03-24T10:08:47.087Z,1014.13
2019-03-24T10:09:52.178Z,1014.15
2019-03-24T10:10:41.076Z,1014.05
2019-03-24T10:11:41.006Z,1014.14
2019-03-24T10:12:40.909Z,1014.07
2019-03-24T10:13:40.836Z,1014.12
2019-03-24T10:14:40.754Z,1014.10
2019-03-24T10:15:40.677Z,1014.20
2019-03-24T10:16:40.615Z,1014.17
2019-03-24T10:17:40.523Z,1014.14
2019-03-24T10:18:40.448Z,1014.15
2019-03-24T10:19:40.370Z,1014.14
2019-03-24T10:20:40.293Z,1014.15
2019-03-24T10:21:40.233Z,1014.18
2019-03-24T10:22:40.128Z,1014.12
2019-03-24T10:23:40.051Z,1014.10
2019-03-24T10:24:39.970Z,1014.10
2019-03-24T10:25:49.910Z,1014.12
2019-03-24T10:26:39.827Z,1014.11
2019-03-24T10:27:39.743Z,1014.12
2019-03-24T10:28:39.657Z,1014.13
2019-03-24T10:29:39.587Z,1014.06
2019-03-24T10:30:39.530Z,1014.06
2019-03-24T10:31:39.457Z,1014.07
2019-03-24T10:32:39.360Z,1014.08
2019-03-24T10:33:39.285Z,1014.09
2019-03-24T10:34:39.206Z,1014.06
2019-03-24T10:35:39.128Z,1013.98
2019-03-24T10:36:39.049Z,1013.97
2019-03-24T10:37:38.973Z,1013.97
2019-03-24T10:38:38.893Z,1013.97
2019-03-24T10:39:38.811Z,1013.97
2019-03-24T10:40:38.730Z,1013.90
2019-03-24T10:41:48.668Z,1013.91
2019-03-24T10:42:38.575Z,1013.90
2019-03-24T10:43:38.494Z,1013.91
2019-03-24T10:44:40.376Z,1013.92
2019-03-24T10:45:38.329Z,1013.97
2019-03-24T10:46:38.251Z,1013.98
2019-03-24T10:47:38.178Z,1013.91
2019-03-24T10:48:38.087Z,1013.97
2019-03-24T10:49:38.008Z,1013.97
2019-03-24T10:50:37.929Z,1013.98
2019-03-24T10:51:37.858Z,1013.97
2019-03-24T10:52:37.781Z,1013.94
2019-03-24T10:53:37.704Z,1014.01
2019-03-24T10:54:37.620Z,1013.93
2019-03-24T10:55:37.530Z,1013.94
2019-03-24T10:56:37.442Z,1013.97
2019-03-24T10:57:47.376Z,1013.92
2019-03-24T10:58:37.284Z,1013.86
2019-03-24T10:59:37.213Z,1013.86
2019-03-24T11:00:37.120Z,1013.85
2019-03-24T11:01:37.039Z,1013.89
2019-03-24T12:51:23.021Z,1012.99
2019-03-24T12:52:22.956Z,1012.95
2019-03-24T12:53:22.917Z,1012.99
2019-03-24T12:54:25.366Z,1013.05
2019-03-24T12:55:22.830Z,1012.99
2019-03-24T12:56:22.804Z,1013.04
2019-03-24T12:57:22.729Z,1013.03
2019-03-24T12:58:22.674Z,1013.03
2019-03-24T12:59:22.615Z,1013.00
2019-03-24T13:00:22.556Z,1012.90
2019-03-24T13:01:22.526Z,1012.91
2019-03-24T13:02:22.433Z,1012.95
2019-03-24T13:03:22.373Z,1012.93
2019-03-24T13:04:22.309Z,1012.93
2019-03-24T13:05:22.246Z,1012.91
2019-03-24T13:06:22.220Z,1012.94
2019-03-24T13:07:22.115Z,1012.95
2019-03-24T13:08:22.042Z,1012.90
2019-03-24T13:09:21.972Z,1012.97
2019-03-24T13:10:21.920Z,1012.91
2019-03-24T13:11:21.841Z,1012.95
2019-03-24T13:12:21.779Z,1012.95
2019-03-24T13:13:21.708Z,1012.89
2019-03-24T13:14:21.642Z,1012.97
2019-03-24T13:15:21.575Z,1012.93
2019-03-24T13:16:21.500Z,1013.01
2019-03-24T13:17:31.461Z,1012.92
2019-03-24T13:18:21.376Z,1013.01
2019-03-24T13:19:21.316Z,1013.02
2019-03-24T13:20:36.535Z,1013.01
2019-03-24T13:21:22.172Z,1012.91
2019-03-24T13:22:21.096Z,1012.93
2019-03-24T13:23:21.016Z,1012.95
2019-03-24T13:24:20.945Z,1013.00
2019-03-24T13:25:20.877Z,1012.98
2019-03-24T13:26:20.808Z,1012.96
2019-03-24T13:27:20.740Z,1012.93
2019-03-24T13:28:20.655Z,1012.91
2019-03-24T13:29:20.594Z,1012.90
2019-03-24T13:30:20.501Z,1012.87
2019-03-24T13:31:20.437Z,1012.91
2019-03-24T13:32:20.377Z,1012.88
2019-03-24T13:33:30.292Z,1012.99
2019-03-24T13:34:20.200Z,1013.00
2019-03-24T13:35:20.116Z,1012.84
2019-03-24T13:36:20.070Z,1012.79
2019-03-24T13:37:19.994Z,1012.86
2019-03-24T13:38:19.891Z,1012.82
2019-03-24T13:39:19.813Z,1012.93
2019-03-24T13:40:19.736Z,1012.94
2019-03-24T13:41:19.667Z,1012.87
2019-03-24T13:42:19.596Z,1012.89
2019-03-24T13:43:19.503Z,1012.83
2019-03-24T13:44:19.422Z,1012.84
2019-03-24T13:45:19.339Z,1012.83
2019-03-24T13:46:19.264Z,1012.80
2019-03-24T13:47:19.195Z,1012.80
2019-03-24T13:48:19.107Z,1012.79
2019-03-24T13:49:29.036Z,1012.80
2019-03-24T13:50:18.954Z,1012.83
2019-03-24T13:51:18.867Z,1012.80
2019-03-24T13:52:18.799Z,1012.80
2019-03-24T13:53:18.719Z,1012.76